sensor_id;sensor_type;location;lat;lon;timestamp;pressure;altitude;pressure_sealevel;temperature;humidity
45255;BME280;30989;52.078;21.014;2024-02-15T00:00:40;164969.50;;;4.65;96.88
45255;BME280;30989;52.078;21.014;2024-02-15T00:03:05;164957.50;;;4.61;97.05
45255;BME280;30989;52.078;21.014;2024-02-15T00:05:34;164953.50;;;4.59;96.57
45255;BME280;30989;52.078;21.014;2024-02-15T00:08:02;164962.84;;;4.63;96.93
45255;BME280;30989;52.078;21.014;2024-02-15T00:10:28;164948.16;;;4.57;96.97
45255;BME280;30989;52.078;21.014;2024-02-15T00:12:53;164961.50;;;4.62;97.04
45255;BME280;30989;52.078;21.014;2024-02-15T00:15:19;164952.16;;;4.59;97.38
45255;BME280;30989;52.078;21.014;2024-02-15T00:17:45;164958.81;;;4.61;97.38
45255;BME280;30989;52.078;21.014;2024-02-15T00:20:12;164952.16;;;4.59;97.29
45255;BME280;30989;52.078;21.014;2024-02-15T00:22:38;164961.50;;;4.62;97.02
45255;BME280;30989;52.078;21.014;2024-02-15T00:25:06;164957.50;;;4.61;97.20
45255;BME280;30989;52.078;21.014;2024-02-15T00:27:35;164958.81;;;4.61;97.71
45255;BME280;30989;52.078;21.014;2024-02-15T00:30:01;164957.50;;;4.61;97.67
45255;BME280;30989;52.078;21.014;2024-02-15T00:32:26;164958.81;;;4.61;97.62
45255;BME280;30989;52.078;21.014;2024-02-15T00:34:52;164957.50;;;4.61;97.34
45255;BME280;30989;52.078;21.014;2024-02-15T00:37:18;164945.50;;;4.56;97.57
45255;BME280;30989;52.078;21.014;2024-02-15T00:39:44;164956.16;;;4.60;97.86
45255;BME280;30989;52.078;21.014;2024-02-15T00:42:10;164948.16;;;4.57;97.94
45255;BME280;30989;52.078;21.014;2024-02-15T00:44:35;164949.50;;;4.58;97.95
45255;BME280;30989;52.078;21.014;2024-02-15T00:47:02;164946.81;;;4.57;98.21
45255;BME280;30989;52.078;21.014;2024-02-15T00:49:28;164953.50;;;4.59;97.94
45255;BME280;30989;52.078;21.014;2024-02-15T00:51:53;164929.47;;;4.50;98.09
45255;BME280;30989;52.078;21.014;2024-02-15T00:54:19;164948.16;;;4.57;97.96
45255;BME280;30989;52.078;21.014;2024-02-15T00:56:44;164946.81;;;4.57;98.40
45255;BME280;30989;52.078;21.014;2024-02-15T00:59:10;164926.81;;;4.49;97.76
45255;BME280;30989;52.078;21.014;2024-02-15T01:01:35;164942.81;;;4.55;97.74
45255;BME280;30989;52.078;21.014;2024-02-15T01:04:04;164949.50;;;4.58;98.00
45255;BME280;30989;52.078;21.014;2024-02-15T01:06:29;164952.16;;;4.59;98.38
45255;BME280;30989;52.078;21.014;2024-02-15T01:08:55;164948.16;;;4.57;98.49
45255;BME280;30989;52.078;21.014;2024-02-15T01:11:20;164941.50;;;4.54;98.43
45255;BME280;30989;52.078;21.014;2024-02-15T01:13:46;164946.81;;;4.57;98.58
45255;BME280;30989;52.078;21.014;2024-02-15T01:16:12;164950.81;;;4.58;98.45
45255;BME280;30989;52.078;21.014;2024-02-15T01:18:37;164950.81;;;4.58;98.30
45255;BME280;30989;52.078;21.014;2024-02-15T01:21:04;164952.16;;;4.59;98.81
45255;BME280;30989;52.078;21.014;2024-02-15T01:23:29;164949.50;;;4.58;98.50
45255;BME280;30989;52.078;21.014;2024-02-15T01:25:55;164948.16;;;4.57;98.17
45255;BME280;30989;52.078;21.014;2024-02-15T01:28:20;164945.50;;;4.56;98.43
45255;BME280;30989;52.078;21.014;2024-02-15T01:30:47;164942.81;;;4.55;98.37
45255;BME280;30989;52.078;21.014;2024-02-15T01:33:12;164928.16;;;4.49;98.59
45255;BME280;30989;52.078;21.014;2024-02-15T01:35:38;164940.16;;;4.54;98.89
45255;BME280;30989;52.078;21.014;2024-02-15T01:38:05;164934.81;;;4.52;99.23
45255;BME280;30989;52.078;21.014;2024-02-15T01:40:30;164928.16;;;4.49;99.24
45255;BME280;30989;52.078;21.014;2024-02-15T01:42:56;164934.81;;;4.52;98.89
45255;BME280;30989;52.078;21.014;2024-02-15T01:45:23;164934.81;;;4.52;98.74
45255;BME280;30989;52.078;21.014;2024-02-15T01:47:51;164936.16;;;4.52;98.58
45255;BME280;30989;52.078;21.014;2024-02-15T01:50:17;164936.16;;;4.52;98.88
45255;BME280;30989;52.078;21.014;2024-02-15T01:52:46;164940.16;;;4.54;99.37
45255;BME280;30989;52.078;21.014;2024-02-15T01:55:14;164937.47;;;4.53;99.31
45255;BME280;30989;52.078;21.014;2024-02-15T01:57:44;164926.81;;;4.49;99.29
45255;BME280;30989;52.078;21.014;2024-02-15T02:00:11;164942.81;;;4.55;99.43
45255;BME280;30989;52.078;21.014;2024-02-15T02:02:39;164934.81;;;4.52;99.16
45255;BME280;30989;52.078;21.014;2024-02-15T02:05:05;164937.47;;;4.53;98.50
45255;BME280;30989;52.078;21.014;2024-02-15T02:07:31;164937.47;;;4.53;98.76
45255;BME280;30989;52.078;21.014;2024-02-15T02:09:56;164934.81;;;4.52;99.04
45255;BME280;30989;52.078;21.014;2024-02-15T02:12:22;164922.81;;;4.47;98.94
45255;BME280;30989;52.078;21.014;2024-02-15T02:14:47;164926.81;;;4.49;98.74
45255;BME280;30989;52.078;21.014;2024-02-15T02:17:13;164926.81;;;4.49;98.91
45255;BME280;30989;52.078;21.014;2024-02-15T02:19:40;164920.13;;;4.46;99.32
45255;BME280;30989;52.078;21.014;2024-02-15T02:22:05;164926.81;;;4.49;99.49
45255;BME280;30989;52.078;21.014;2024-02-15T02:24:42;164913.47;;;4.44;99.75
45255;BME280;30989;52.078;21.014;2024-02-15T02:27:12;164924.16;;;4.48;99.44
45255;BME280;30989;52.078;21.014;2024-02-15T02:29:42;164924.16;;;4.48;100.00
45255;BME280;30989;52.078;21.014;2024-02-15T02:32:11;164921.47;;;4.47;99.92
45255;BME280;30989;52.078;21.014;2024-02-15T02:34:37;164918.81;;;4.46;99.78
45255;BME280;30989;52.078;21.014;2024-02-15T02:37:02;164916.13;;;4.45;99.63
45255;BME280;30989;52.078;21.014;2024-02-15T02:39:31;164913.47;;;4.44;99.36
45255;BME280;30989;52.078;21.014;2024-02-15T02:41:57;164904.13;;;4.40;99.61
45255;BME280;30989;52.078;21.014;2024-02-15T02:44:23;164909.47;;;4.42;99.67
45255;BME280;30989;52.078;21.014;2024-02-15T02:46:49;164900.13;;;4.39;100.00
45255;BME280;30989;52.078;21.014;2024-02-15T02:49:14;164898.81;;;4.38;100.00
45255;BME280;30989;52.078;21.014;2024-02-15T02:51:39;164896.13;;;4.37;100.00
45255;BME280;30989;52.078;21.014;2024-02-15T02:54:05;164910.81;;;4.43;100.00
45255;BME280;30989;52.078;21.014;2024-02-15T02:56:32;164909.47;;;4.42;99.97
45255;BME280;30989;52.078;21.014;2024-02-15T02:58:58;164906.81;;;4.41;100.00
45255;BME280;30989;52.078;21.014;2024-02-15T03:01:24;164910.81;;;4.43;100.00
45255;BME280;30989;52.078;21.014;2024-02-15T03:03:53;164910.81;;;4.43;100.00
45255;BME280;30989;52.078;21.014;2024-02-15T03:06:21;164910.81;;;4.43;100.00
45255;BME280;30989;52.078;21.014;2024-02-15T03:08:47;164908.13;;;4.42;100.00
45255;BME280;30989;52.078;21.014;2024-02-15T03:11:12;164905.47;;;4.41;100.00
45255;BME280;30989;52.078;21.014;2024-02-15T03:13:39;164902.81;;;4.40;100.00
45255;BME280;30989;52.078;21.014;2024-02-15T03:16:05;164909.47;;;4.42;100.00
45255;BME280;30989;52.078;21.014;2024-02-15T03:18:34;164913.47;;;4.44;100.00
45255;BME280;30989;52.078;21.014;2024-02-15T03:21:00;164910.81;;;4.43;100.00
45255;BME280;30989;52.078;21.014;2024-02-15T03:23:26;164910.81;;;4.43;100.00
45255;BME280;30989;52.078;21.014;2024-02-15T03:25:51;164917.47;;;4.45;100.00
45255;BME280;30989;52.078;21.014;2024-02-15T03:28:17;164909.47;;;4.42;100.00
45255;BME280;30989;52.078;21.014;2024-02-15T03:30:42;164901.47;;;4.39;100.00
45255;BME280;30989;52.078;21.014;2024-02-15T03:33:11;164910.81;;;4.43;100.00
45255;BME280;30989;52.078;21.014;2024-02-15T03:35:37;164910.81;;;4.43;100.00
45255;BME280;30989;52.078;21.014;2024-02-15T03:38:03;164910.81;;;4.43;100.00
45255;BME280;30989;52.078;21.014;2024-02-15T03:40:28;164901.47;;;4.39;100.00
45255;BME280;30989;52.078;21.014;2024-02-15T03:42:55;164913.47;;;4.44;100.00
45255;BME280;30989;52.078;21.014;2024-02-15T03:45:21;164914.81;;;4.44;100.00
45255;BME280;30989;52.078;21.014;2024-02-15T03:47:53;164921.47;;;4.47;100.00
45255;BME280;30989;52.078;21.014;2024-02-15T03:50:19;164908.13;;;4.42;100.00
45255;BME280;30989;52.078;21.014;2024-02-15T03:52:46;164920.13;;;4.46;100.00
45255;BME280;30989;52.078;21.014;2024-02-15T03:55:12;164918.81;;;4.46;100.00
45255;BME280;30989;52.078;21.014;2024-02-15T03:57:38;164921.47;;;4.47;100.00
45255;BME280;30989;52.078;21.014;2024-02-15T04:00:09;164905.47;;;4.41;100.00
45255;BME280;30989;52.078;21.014;2024-02-15T04:02:36;164914.81;;;4.44;100.00
45255;BME280;30989;52.078;21.014;2024-02-15T04:05:02;164918.81;;;4.46;100.00
45255;BME280;30989;52.078;21.014;2024-02-15T04:07:30;164905.47;;;4.41;100.00
45255;BME280;30989;52.078;21.014;2024-02-15T04:09:56;164914.81;;;4.44;100.00
45255;BME280;30989;52.078;21.014;2024-02-15T04:12:21;164921.47;;;4.47;100.00
45255;BME280;30989;52.078;21.014;2024-02-15T04:14:47;164920.13;;;4.46;100.00
45255;BME280;30989;52.078;21.014;2024-02-15T04:17:13;164910.81;;;4.43;100.00
45255;BME280;30989;52.078;21.014;2024-02-15T04:19:47;164918.81;;;4.46;100.00
45255;BME280;30989;52.078;21.014;2024-02-15T04:22:15;164910.81;;;4.43;100.00
45255;BME280;30989;52.078;21.014;2024-02-15T04:24:44;164910.81;;;4.43;100.00
45255;BME280;30989;52.078;21.014;2024-02-15T04:27:10;164908.13;;;4.42;100.00
45255;BME280;30989;52.078;21.014;2024-02-15T04:29:46;164900.13;;;4.39;100.00
45255;BME280;30989;52.078;21.014;2024-02-15T04:32:12;164917.47;;;4.45;100.00
45255;BME280;30989;52.078;21.014;2024-02-15T04:34:40;164914.81;;;4.44;100.00
45255;BME280;30989;52.078;21.014;2024-02-15T04:37:06;164908.13;;;4.42;100.00
45255;BME280;30989;52.078;21.014;2024-02-15T04:39:37;164918.81;;;4.46;100.00
45255;BME280;30989;52.078;21.014;2024-02-15T04:42:04;164913.47;;;4.44;100.00
45255;BME280;30989;52.078;21.014;2024-02-15T04:44:31;164912.13;;;4.43;100.00
45255;BME280;30989;52.078;21.014;2024-02-15T04:47:00;164908.13;;;4.42;100.00
45255;BME280;30989;52.078;21.014;2024-02-15T04:49:26;164913.47;;;4.44;100.00
45255;BME280;30989;52.078;21.014;2024-02-15T04:51:54;164905.47;;;4.41;100.00
45255;BME280;30989;52.078;21.014;2024-02-15T04:54:20;164910.81;;;4.43;100.00
45255;BME280;30989;52.078;21.014;2024-02-15T04:56:45;164908.13;;;4.42;100.00
45255;BME280;30989;52.078;21.014;2024-02-15T04:59:11;164906.81;;;4.41;100.00
45255;BME280;30989;52.078;21.014;2024-02-15T05:01:41;164902.81;;;4.40;100.00
45255;BME280;30989;52.078;21.014;2024-02-15T05:04:11;164900.13;;;4.39;100.00
45255;BME280;30989;52.078;21.014;2024-02-15T05:06:37;164898.81;;;4.38;100.00
45255;BME280;30989;52.078;21.014;2024-02-15T05:09:03;164889.47;;;4.35;100.00
45255;BME280;30989;52.078;21.014;2024-02-15T05:11:38;164900.13;;;4.39;100.00
45255;BME280;30989;52.078;21.014;2024-02-15T05:14:07;164900.13;;;4.39;100.00
45255;BME280;30989;52.078;21.014;2024-02-15T05:16:34;164897.47;;;4.38;100.00
45255;BME280;30989;52.078;21.014;2024-02-15T05:18:59;164888.13;;;4.34;100.00
45255;BME280;30989;52.078;21.014;2024-02-15T05:21:25;164900.13;;;4.39;100.00
45255;BME280;30989;52.078;21.014;2024-02-15T05:23:50;164897.47;;;4.38;100.00
45255;BME280;30989;52.078;21.014;2024-02-15T05:26:18;164902.81;;;4.40;100.00
45255;BME280;30989;52.078;21.014;2024-02-15T05:28:49;164897.47;;;4.38;100.00
45255;BME280;30989;52.078;21.014;2024-02-15T05:31:17;164901.47;;;4.39;100.00
45255;BME280;30989;52.078;21.014;2024-02-15T05:33:45;164897.47;;;4.38;100.00
45255;BME280;30989;52.078;21.014;2024-02-15T05:36:17;164906.81;;;4.41;100.00
45255;BME280;30989;52.078;21.014;2024-02-15T05:38:53;164904.13;;;4.40;100.00
45255;BME280;30989;52.078;21.014;2024-02-15T05:41:20;164890.81;;;4.35;100.00
45255;BME280;30989;52.078;21.014;2024-02-15T05:43:47;164904.13;;;4.40;100.00
45255;BME280;30989;52.078;21.014;2024-02-15T05:46:18;164901.47;;;4.39;100.00
45255;BME280;30989;52.078;21.014;2024-02-15T05:48:44;164900.13;;;4.39;100.00
45255;BME280;30989;52.078;21.014;2024-02-15T05:51:09;164872.13;;;4.28;100.00
45255;BME280;30989;52.078;21.014;2024-02-15T05:53:35;164894.81;;;4.37;100.00
45255;BME280;30989;52.078;21.014;2024-02-15T05:56:09;164894.81;;;4.37;100.00
45255;BME280;30989;52.078;21.014;2024-02-15T05:58:39;164894.81;;;4.37;100.00
45255;BME280;30989;52.078;21.014;2024-02-15T06:01:05;164878.78;;;4.31;100.00
45255;BME280;30989;52.078;21.014;2024-02-15T06:03:33;164890.81;;;4.35;100.00
45255;BME280;30989;52.078;21.014;2024-02-15T06:06:02;164884.13;;;4.33;100.00
45255;BME280;30989;52.078;21.014;2024-02-15T06:08:32;164888.13;;;4.34;100.00
45255;BME280;30989;52.078;21.014;2024-02-15T06:10:58;164884.13;;;4.33;100.00
45255;BME280;30989;52.078;21.014;2024-02-15T06:13:26;164878.78;;;4.31;100.00
45255;BME280;30989;52.078;21.014;2024-02-15T06:15:51;164869.47;;;4.27;100.00
45255;BME280;30989;52.078;21.014;2024-02-15T06:18:25;164862.78;;;4.25;100.00
45255;BME280;30989;52.078;21.014;2024-02-15T06:20:52;164845.44;;;4.18;100.00
45255;BME280;30989;52.078;21.014;2024-02-15T06:23:18;164832.13;;;4.13;100.00
45255;BME280;30989;52.078;21.014;2024-02-15T06:25:44;164814.78;;;4.06;100.00
45255;BME280;30989;52.078;21.014;2024-02-15T06:28:10;164800.09;;;4.01;100.00
45255;BME280;30989;52.078;21.014;2024-02-15T06:30:47;164806.78;;;4.03;100.00
45255;BME280;30989;52.078;21.014;2024-02-15T06:33:34;164794.78;;;3.99;100.00
45255;BME280;30989;52.078;21.014;2024-02-15T06:36:18;164804.13;;;4.02;100.00
45255;BME280;30989;52.078;21.014;2024-02-15T06:39:02;164794.78;;;3.99;100.00
45255;BME280;30989;52.078;21.014;2024-02-15T06:41:46;164793.44;;;3.98;100.00
45255;BME280;30989;52.078;21.014;2024-02-15T06:44:11;164801.44;;;4.01;100.00
45255;BME280;30989;52.078;21.014;2024-02-15T06:46:37;164801.44;;;4.01;100.00
45255;BME280;30989;52.078;21.014;2024-02-15T06:49:02;164809.44;;;4.04;100.00
45255;BME280;30989;52.078;21.014;2024-02-15T06:51:30;164812.09;;;4.05;100.00
45255;BME280;30989;52.078;21.014;2024-02-15T06:53:56;164813.44;;;4.06;100.00
45255;BME280;30989;52.078;21.014;2024-02-15T06:56:22;164796.09;;;3.99;100.00
45255;BME280;30989;52.078;21.014;2024-02-15T06:58:47;164805.44;;;4.03;100.00
45255;BME280;30989;52.078;21.014;2024-02-15T07:01:14;164786.78;;;3.96;100.00
45255;BME280;30989;52.078;21.014;2024-02-15T07:03:42;164797.44;;;4.00;100.00
45255;BME280;30989;52.078;21.014;2024-02-15T07:06:09;164780.09;;;3.93;100.00
45255;BME280;30989;52.078;21.014;2024-02-15T07:08:35;164788.09;;;3.96;100.00
45255;BME280;30989;52.078;21.014;2024-02-15T07:11:01;164781.44;;;3.94;100.00
45255;BME280;30989;52.078;21.014;2024-02-15T07:13:29;164757.44;;;3.84;100.00
45255;BME280;30989;52.078;21.014;2024-02-15T07:15:54;164765.44;;;3.87;100.00
45255;BME280;30989;52.078;21.014;2024-02-15T07:18:20;164748.09;;;3.81;100.00
45255;BME280;30989;52.078;21.014;2024-02-15T07:20:47;164740.09;;;3.78;100.00
45255;BME280;30989;52.078;21.014;2024-02-15T07:23:13;164753.44;;;3.83;100.00
45255;BME280;30989;52.078;21.014;2024-02-15T07:25:40;164753.44;;;3.83;100.00
45255;BME280;30989;52.078;21.014;2024-02-15T07:28:06;164748.09;;;3.81;100.00
45255;BME280;30989;52.078;21.014;2024-02-15T07:30:33;164732.09;;;3.75;100.00
45255;BME280;30989;52.078;21.014;2024-02-15T07:32:59;164740.09;;;3.78;100.00
45255;BME280;30989;52.078;21.014;2024-02-15T07:35:25;164730.78;;;3.74;100.00
45255;BME280;30989;52.078;21.014;2024-02-15T07:37:52;164744.09;;;3.79;100.00
45255;BME280;30989;52.078;21.014;2024-02-15T07:40:19;164753.44;;;3.83;100.00
45255;BME280;30989;52.078;21.014;2024-02-15T07:42:47;164760.09;;;3.85;100.00
45255;BME280;30989;52.078;21.014;2024-02-15T07:45:13;164748.09;;;3.81;100.00
45255;BME280;30989;52.078;21.014;2024-02-15T07:47:39;164753.44;;;3.83;100.00
45255;BME280;30989;52.078;21.014;2024-02-15T07:50:04;164754.78;;;3.83;100.00
45255;BME280;30989;52.078;21.014;2024-02-15T07:52:31;164766.78;;;3.88;100.00
45255;BME280;30989;52.078;21.014;2024-02-15T07:54:56;164790.78;;;3.97;100.00
45255;BME280;30989;52.078;21.014;2024-02-15T07:57:22;164796.09;;;3.99;100.00
45255;BME280;30989;52.078;21.014;2024-02-15T07:59:50;164812.09;;;4.05;100.00
45255;BME280;30989;52.078;21.014;2024-02-15T08:02:16;164813.44;;;4.06;100.00
45255;BME280;30989;52.078;21.014;2024-02-15T08:04:47;164833.44;;;4.13;100.00
45255;BME280;30989;52.078;21.014;2024-02-15T08:07:13;164842.78;;;4.17;100.00
45255;BME280;30989;52.078;21.014;2024-02-15T08:09:41;164849.44;;;4.19;100.00
45255;BME280;30989;52.078;21.014;2024-02-15T08:12:07;164852.13;;;4.20;100.00
45255;BME280;30989;52.078;21.014;2024-02-15T08:14:32;164846.78;;;4.18;100.00
45255;BME280;30989;52.078;21.014;2024-02-15T08:16:58;164862.78;;;4.25;100.00
45255;BME280;30989;52.078;21.014;2024-02-15T08:19:23;164877.47;;;4.30;100.00
45255;BME280;30989;52.078;21.014;2024-02-15T08:21:49;164889.47;;;4.35;100.00
45255;BME280;30989;52.078;21.014;2024-02-15T08:24:16;164908.13;;;4.42;100.00
45255;BME280;30989;52.078;21.014;2024-02-15T08:26:42;164926.81;;;4.49;100.00
45255;BME280;30989;52.078;21.014;2024-02-15T08:29:08;164945.50;;;4.56;100.00
45255;BME280;30989;52.078;21.014;2024-02-15T08:31:40;164972.16;;;4.66;100.00
45255;BME280;30989;52.078;21.014;2024-02-15T08:34:06;165000.19;;;4.77;100.00
45255;BME280;30989;52.078;21.014;2024-02-15T08:36:36;165017.53;;;4.83;100.00
45255;BME280;30989;52.078;21.014;2024-02-15T08:39:02;165042.88;;;4.93;100.00
45255;BME280;30989;52.078;21.014;2024-02-15T08:41:29;165053.56;;;4.97;100.00
45255;BME280;30989;52.078;21.014;2024-02-15T08:43:55;165074.91;;;5.05;100.00
45255;BME280;30989;52.078;21.014;2024-02-15T08:46:23;165074.91;;;5.05;100.00
45255;BME280;30989;52.078;21.014;2024-02-15T08:48:50;165104.28;;;5.16;100.00
45255;BME280;30989;52.078;21.014;2024-02-15T08:51:15;165113.66;;;5.20;100.00
45255;BME280;30989;52.078;21.014;2024-02-15T08:53:41;165120.34;;;5.23;100.00
45255;BME280;30989;52.078;21.014;2024-02-15T08:56:08;165128.34;;;5.26;100.00
45255;BME280;30989;52.078;21.014;2024-02-15T08:58:35;165137.69;;;5.29;100.00
45255;BME280;30989;52.078;21.014;2024-02-15T09:01:01;165151.03;;;5.34;100.00
45255;BME280;30989;52.078;21.014;2024-02-15T09:03:28;165164.38;;;5.39;100.00
45255;BME280;30989;52.078;21.014;2024-02-15T09:05:53;165172.38;;;5.42;100.00
45255;BME280;30989;52.078;21.014;2024-02-15T09:08:19;165184.41;;;5.47;100.00
45255;BME280;30989;52.078;21.014;2024-02-15T09:10:49;165188.41;;;5.48;100.00
45255;BME280;30989;52.078;21.014;2024-02-15T09:13:15;165200.41;;;5.53;100.00
45255;BME280;30989;52.078;21.014;2024-02-15T09:15:41;165200.41;;;5.53;100.00
45255;BME280;30989;52.078;21.014;2024-02-15T09:18:08;165199.09;;;5.53;100.00
45255;BME280;30989;52.078;21.014;2024-02-15T09:20:36;165196.41;;;5.52;100.00
45255;BME280;30989;52.078;21.014;2024-02-15T09:23:04;165199.09;;;5.53;100.00
45255;BME280;30989;52.078;21.014;2024-02-15T09:25:37;165212.44;;;5.58;100.00
45255;BME280;30989;52.078;21.014;2024-02-15T09:28:03;165217.78;;;5.60;100.00
45255;BME280;30989;52.078;21.014;2024-02-15T09:30:29;165216.44;;;5.59;100.00
45255;BME280;30989;52.078;21.014;2024-02-15T09:32:56;165211.09;;;5.57;100.00
45255;BME280;30989;52.078;21.014;2024-02-15T09:35:22;165216.44;;;5.59;100.00
45255;BME280;30989;52.078;21.014;2024-02-15T09:37:48;165212.44;;;5.58;100.00
45255;BME280;30989;52.078;21.014;2024-02-15T09:40:15;165216.44;;;5.59;100.00
45255;BME280;30989;52.078;21.014;2024-02-15T09:42:42;165223.09;;;5.62;100.00
45255;BME280;30989;52.078;21.014;2024-02-15T09:45:11;165233.78;;;5.66;100.00
45255;BME280;30989;52.078;21.014;2024-02-15T09:47:38;165225.78;;;5.63;100.00
45255;BME280;30989;52.078;21.014;2024-02-15T09:50:08;165228.44;;;5.64;100.00
45255;BME280;30989;52.078;21.014;2024-02-15T09:52:38;165247.13;;;5.71;100.00
45255;BME280;30989;52.078;21.014;2024-02-15T09:55:04;165249.81;;;5.72;100.00
45255;BME280;30989;52.078;21.014;2024-02-15T09:57:30;165260.50;;;5.76;100.00
45255;BME280;30989;52.078;21.014;2024-02-15T10:00:00;165264.50;;;5.77;100.00
45255;BME280;30989;52.078;21.014;2024-02-15T10:02:29;165272.50;;;5.80;100.00
45255;BME280;30989;52.078;21.014;2024-02-15T10:04:56;165277.84;;;5.82;100.00
45255;BME280;30989;52.078;21.014;2024-02-15T10:07:25;165289.88;;;5.87;100.00
45255;BME280;30989;52.078;21.014;2024-02-15T10:09:53;165305.94;;;5.93;100.00
45255;BME280;30989;52.078;21.014;2024-02-15T10:12:18;165297.94;;;5.90;100.00
45255;BME280;30989;52.078;21.014;2024-02-15T10:14:50;165307.28;;;5.94;100.00
45255;BME280;30989;52.078;21.014;2024-02-15T10:17:18;165288.53;;;5.87;100.00
45255;BME280;30989;52.078;21.014;2024-02-15T10:19:43;165305.94;;;5.93;100.00
45255;BME280;30989;52.078;21.014;2024-02-15T10:22:10;165319.28;;;5.98;100.00
45255;BME280;30989;52.078;21.014;2024-02-15T10:24:37;165325.97;;;6.01;100.00
45255;BME280;30989;52.078;21.014;2024-02-15T10:27:05;165333.97;;;6.04;100.00
45255;BME280;30989;52.078;21.014;2024-02-15T10:29:33;165342.00;;;6.07;100.00
45255;BME280;30989;52.078;21.014;2024-02-15T10:32:03;165348.66;;;6.09;100.00
45255;BME280;30989;52.078;21.014;2024-02-15T10:34:29;165354.00;;;6.11;100.00
45255;BME280;30989;52.078;21.014;2024-02-15T10:37:13;165359.34;;;6.13;100.00
45255;BME280;30989;52.078;21.014;2024-02-15T10:39:39;165355.34;;;6.12;100.00
45255;BME280;30989;52.078;21.014;2024-02-15T10:42:07;165346.00;;;6.08;100.00
45255;BME280;30989;52.078;21.014;2024-02-15T10:44:36;165351.34;;;6.10;100.00
45255;BME280;30989;52.078;21.014;2024-02-15T10:47:04;165359.34;;;6.13;100.00
45255;BME280;30989;52.078;21.014;2024-02-15T10:49:33;165364.69;;;6.16;100.00
45255;BME280;30989;52.078;21.014;2024-02-15T10:52:00;165394.06;;;6.27;100.00
45255;BME280;30989;52.078;21.014;2024-02-15T10:54:40;165418.13;;;6.36;100.00
45255;BME280;30989;52.078;21.014;2024-02-15T10:57:09;165423.47;;;6.38;100.00
45255;BME280;30989;52.078;21.014;2024-02-15T10:59:37;165440.81;;;6.44;100.00
45255;BME280;30989;52.078;21.014;2024-02-15T11:02:26;165455.50;;;6.50;100.00
45255;BME280;30989;52.078;21.014;2024-02-15T11:04:53;165474.22;;;6.57;100.00
45255;BME280;30989;52.078;21.014;2024-02-15T11:07:24;165490.25;;;6.63;100.00
45255;BME280;30989;52.078;21.014;2024-02-15T11:09:54;165514.28;;;6.72;100.00
45255;BME280;30989;52.078;21.014;2024-02-15T11:12:22;165535.66;;;6.81;100.00
45255;BME280;30989;52.078;21.014;2024-02-15T11:14:49;165539.69;;;6.82;100.00
45255;BME280;30989;52.078;21.014;2024-02-15T11:20:10;165573.09;;;6.95;100.00
45255;BME280;30989;52.078;21.014;2024-02-15T11:22:56;165602.47;;;7.06;100.00
45255;BME280;30989;52.078;21.014;2024-02-15T11:25:34;165650.59;;;7.24;100.00
45255;BME280;30989;52.078;21.014;2024-02-15T11:30:50;165730.78;;;7.55;100.00
45255;BME280;30989;52.078;21.014;2024-02-15T11:33:29;165760.19;;;7.66;100.00
45255;BME280;30989;52.078;21.014;2024-02-15T11:36:03;165778.91;;;7.73;100.00
45255;BME280;30989;52.078;21.014;2024-02-15T11:38:30;165816.34;;;7.87;100.00
45255;BME280;30989;52.078;21.014;2024-02-15T11:46:26;165924.66;;;8.28;100.00
45255;BME280;30989;52.078;21.014;2024-02-15T11:49:00;165986.22;;;8.52;100.00
45255;BME280;30989;52.078;21.014;2024-02-15T11:51:34;166030.38;;;8.68;100.00
45255;BME280;30989;52.078;21.014;2024-02-15T11:54:09;166021.00;;;8.65;100.00
45255;BME280;30989;52.078;21.014;2024-02-15T11:56:53;166043.75;;;8.73;100.00
45255;BME280;30989;52.078;21.014;2024-02-15T11:59:42;166033.03;;;8.69;100.00
45255;BME280;30989;52.078;21.014;2024-02-15T12:02:21;166018.31;;;8.64;100.00
45255;BME280;30989;52.078;21.014;2024-02-15T12:05:06;165999.59;;;8.57;100.00
45255;BME280;30989;52.078;21.014;2024-02-15T12:07:50;165983.53;;;8.51;100.00
45255;BME280;30989;52.078;21.014;2024-02-15T12:10:34;165960.81;;;8.42;100.00
45255;BME280;30989;52.078;21.014;2024-02-15T12:13:21;165971.50;;;8.46;100.00
45255;BME280;30989;52.078;21.014;2024-02-15T12:16:05;165986.22;;;8.52;100.00
45255;BME280;30989;52.078;21.014;2024-02-15T12:18:49;166019.66;;;8.64;100.00
45255;BME280;30989;52.078;21.014;2024-02-15T12:21:23;166054.44;;;8.78;100.00
45255;BME280;30989;52.078;21.014;2024-02-15T12:23:51;166073.19;;;8.85;100.00
45255;BME280;30989;52.078;21.014;2024-02-15T12:26:21;166089.22;;;8.91;100.00
45255;BME280;30989;52.078;21.014;2024-02-15T12:28:52;166085.22;;;8.89;100.00
45255;BME280;30989;52.078;21.014;2024-02-15T12:31:22;166095.91;;;8.93;100.00
45255;BME280;30989;52.078;21.014;2024-02-15T12:34:00;166102.59;;;8.96;100.00
45255;BME280;30989;52.078;21.014;2024-02-15T12:36:27;166097.25;;;8.94;100.00
45255;BME280;30989;52.078;21.014;2024-02-15T12:39:03;166103.94;;;8.96;100.00
45255;BME280;30989;52.078;21.014;2024-02-15T12:41:39;166097.25;;;8.94;100.00
45255;BME280;30989;52.078;21.014;2024-02-15T12:44:07;166095.91;;;8.93;100.00
45255;BME280;30989;52.078;21.014;2024-02-15T12:46:36;166078.53;;;8.87;100.00
45255;BME280;30989;52.078;21.014;2024-02-15T12:55:11;166038.41;;;8.71;100.00
45255;BME280;30989;52.078;21.014;2024-02-15T12:57:38;166034.38;;;8.70;100.00
45255;BME280;30989;52.078;21.014;2024-02-15T13:00:08;166030.38;;;8.68;100.00
45255;BME280;30989;52.078;21.014;2024-02-15T13:02:37;166053.09;;;8.77;100.00
45255;BME280;30989;52.078;21.014;2024-02-15T13:05:04;166073.19;;;8.85;100.00